Time;durP1;ratioP1;P1;durP2;ratioP2;P2;SDS_P1;SDS_P2;PMS_P1;PMS_P2;Temp;Humidity;BMP_temperature;BMP_pressure;BME280_temperature;BME280_humidity;BME280_pressure;Samples;Min_cycle;Max_cycle;Signal;HPM_P1;HPM_P2
2022/12/14 00:02:06;;;;;;;;;;;;;;;7.98;46.91;100104.69;4941442;28;128864;-66
2022/12/14 00:04:31;;;;;;;;;;;;;;;7.96;47.11;100114.84;4962448;28;116986;-66
2022/12/14 00:06:57;;;;;;;;;;;;;;;7.97;46.84;100121.84;4943527;28;97933;-66
2022/12/14 00:09:23;;;;;;;;;;;;;;;7.95;46.79;100119.41;4943313;28;127704;-66
2022/12/14 00:11:49;;;;;;;;;;;;;;;7.95;47.11;100113.25;4972313;28;127148;-69
2022/12/14 00:14:15;;;;;;;;;;;;;;;7.94;47.29;100109.75;4944203;28;117546;-70
2022/12/14 00:16:41;;;;;;;;;;;;;;;7.95;46.70;100099.81;4939235;28;110861;-70
2022/12/14 00:19:11;;;;;;;;;;;;;;;7.94;47.30;100093.66;4973628;28;128024;-67
2022/12/14 00:21:37;;;;;;;;;;;;;;;7.94;46.85;100088.28;4947571;28;104682;-66
2022/12/14 00:24:03;;;;;;;;;;;;;;;7.95;46.62;100094.44;4944081;28;118103;-70
2022/12/14 00:26:30;;;;;;;;;;;;;;;7.93;47.23;100089.31;4978987;28;98188;-66
2022/12/14 00:28:56;;;;;;;;;;;;;;;7.93;47.24;100094.69;4928368;28;117257;-70
2022/12/14 00:31:22;;;;;;;;;;;;;;;7.94;46.97;100085.59;4957265;28;129591;-66
2022/12/14 00:33:49;;;;;;;;;;;;;;;7.94;47.23;100084.75;4976924;28;115583;-70
2022/12/14 00:36:15;;;;;;;;;;;;;;;7.94;47.13;100092.81;4944889;28;98614;-70
2022/12/14 00:38:41;;;;;;;;;;;;;;;7.94;47.35;100084.75;4941037;28;128630;-70
2022/12/14 00:41:07;;;;;;;;;;;;;;;7.93;46.83;100083.16;4943811;28;109368;-69
2022/12/14 00:43:32;;;;;;;;;;;;;;;7.93;46.92;100078.59;4928296;28;117626;-66
2022/12/14 00:45:58;;;;;;;;;;;;;;;7.93;46.65;100073.22;4942295;28;129447;-66
2022/12/14 00:48:24;;;;;;;;;;;;;;;7.93;46.79;100073.22;4943389;28;120406;-70
2022/12/14 00:50:51;;;;;;;;;;;;;;;7.93;47.42;100067.84;4941266;28;127918;-66
2022/12/14 00:53:17;;;;;;;;;;;;;;;7.93;46.61;100072.41;4946062;28;99820;-66
2022/12/14 00:55:44;;;;;;;;;;;;;;;7.93;46.87;100069.75;4962112;28;98157;-70
2022/12/14 00:58:11;;;;;;;;;;;;;;;7.93;46.85;100073.22;4943428;28;125319;-66
2022/12/14 01:00:37;;;;;;;;;;;;;;;7.93;46.68;100061.69;4937837;28;124298;-70
2022/12/14 01:03:03;;;;;;;;;;;;;;;7.93;47.21;100061.69;4962973;28;116194;-66
2022/12/14 01:05:28;;;;;;;;;;;;;;;7.93;46.70;100054.44;4958723;28;126343;-66
2022/12/14 01:07:54;;;;;;;;;;;;;;;7.94;46.78;100052.56;4943500;28;128952;-66
2022/12/14 01:10:20;;;;;;;;;;;;;;;7.93;47.23;100057.13;4958448;28;121920;-70
2022/12/14 01:12:46;;;;;;;;;;;;;;;7.93;46.63;100067.84;4941409;28;107496;-66
2022/12/14 01:15:12;;;;;;;;;;;;;;;7.93;47.10;100059.00;4955512;28;128265;-66
2022/12/14 01:17:38;;;;;;;;;;;;;;;7.93;47.01;100051.75;4964522;28;98764;-70
2022/12/14 01:20:05;;;;;;;;;;;;;;;7.94;46.57;100060.59;4940517;28;98082;-66
2022/12/14 01:22:31;;;;;;;;;;;;;;;7.93;46.87;100064.38;4944418;28;111287;-66
2022/12/14 01:24:56;;;;;;;;;;;;;;;7.94;47.26;100050.72;4957990;28;98204;-66
2022/12/14 01:27:22;;;;;;;;;;;;;;;7.95;46.85;100056.88;4972988;27;127531;-66
2022/12/14 01:29:48;;;;;;;;;;;;;;;7.94;46.68;100056.06;4940089;28;127607;-66
2022/12/14 01:32:14;;;;;;;;;;;;;;;7.95;47.11;100067.63;4943122;28;116983;-70
2022/12/14 01:34:40;;;;;;;;;;;;;;;7.94;46.89;100052.56;4938123;28;128233;-66
2022/12/14 01:37:06;;;;;;;;;;;;;;;7.96;47.13;100055.81;4943669;28;128255;-70
2022/12/14 01:39:32;;;;;;;;;;;;;;;7.96;46.75;100053.94;4955841;28;127980;-66
2022/12/14 01:41:58;;;;;;;;;;;;;;;7.96;47.01;100043.19;4944637;28;116774;-70
2022/12/14 01:44:24;;;;;;;;;;;;;;;7.97;46.81;100042.13;4943445;28;128945;-70
2022/12/14 01:46:57;;;;;;;;;;;;;;;7.97;47.02;100039.44;4974509;28;98680;-66
2022/12/14 01:49:43;;;;;;;;;;;;;;;7.98;47.24;100040.25;4949032;28;100282;-66
2022/12/14 01:52:20;;;;;;;;;;;;;;;7.98;46.52;100041.06;4938991;28;109181;-70
2022/12/14 01:54:50;;;;;;;;;;;;;;;7.99;46.44;100044.56;4944115;28;105515;-70
2022/12/14 01:57:16;;;;;;;;;;;;;;;7.99;47.18;100037.31;4962932;28;122755;-70
2022/12/14 01:59:42;;;;;;;;;;;;;;;7.99;47.29;100034.63;4940190;28;98072;-70
2022/12/14 02:02:09;;;;;;;;;;;;;;;8.00;46.73;100032.75;4957897;28;110172;-66
2022/12/14 02:04:36;;;;;;;;;;;;;;;7.99;46.98;100031.94;4943223;28;127930;-66
2022/12/14 02:07:02;;;;;;;;;;;;;;;8.01;46.97;100037.03;4940912;28;125759;-66
2022/12/14 02:09:30;;;;;;;;;;;;;;;8.03;46.38;100038.41;4964912;28;126784;-70
2022/12/14 02:12:05;;;;;;;;;;;;;;;8.12;46.83;100033.34;4960884;28;106676;-70
2022/12/14 02:14:32;;;;;;;;;;;;;;;8.19;47.23;100033.09;4959136;28;120828;-66
2022/12/14 02:16:58;;;;;;;;;;;;;;;8.26;46.84;100031.00;4959126;28;98267;-66
2022/12/14 02:19:24;;;;;;;;;;;;;;;8.31;47.43;100031.00;4959243;28;127428;-66
2022/12/14 02:22:21;;;;;;;;;;;;;;;8.36;46.70;100022.97;4944096;28;112310;-66
2022/12/14 02:25:09;;;;;;;;;;;;;;;8.40;47.07;100018.72;4955095;28;100025;-66
2022/12/14 02:28:26;;;;;;;;;;;;;;;8.44;46.94;100008.25;4971021;28;100183;-70
2022/12/14 02:31:18;;;;;;;;;;;;;;;8.47;47.17;100010.41;4963608;28;98417;-66
2022/12/14 02:33:56;;;;;;;;;;;;;;;8.50;47.07;100004.53;4965558;28;98163;-70
2022/12/14 02:36:40;;;;;;;;;;;;;;;8.52;47.09;100013.91;4941453;28;121516;-70
2022/12/14 02:39:37;;;;;;;;;;;;;;;8.54;46.59;100010.97;4944371;28;98131;-70
2022/12/14 02:42:14;;;;;;;;;;;;;;;8.55;46.54;100012.59;4939226;28;124372;-70
2022/12/14 02:44:49;;;;;;;;;;;;;;;8.55;46.36;100009.91;4947202;28;98062;-70
2022/12/14 02:47:22;;;;;;;;;;;;;;;8.56;47.00;100017.69;4964279;28;119280;-66
2022/12/14 02:50:13;;;;;;;;;;;;;;;8.56;47.27;100017.69;4945037;28;125762;-67
2022/12/14 02:53:09;;;;;;;;;;;;;;;8.56;46.85;100019.56;4978386;28;97961;-70
2022/12/14 02:55:37;;;;;;;;;;;;;;;8.56;46.74;100016.88;4975565;28;99613;-70
2022/12/14 02:58:06;;;;;;;;;;;;;;;8.55;46.61;100004.53;4930050;28;125571;-66
2022/12/14 03:00:33;;;;;;;;;;;;;;;8.56;46.75;100006.13;4928585;28;104626;-70
2022/12/14 03:02:59;;;;;;;;;;;;;;;8.55;46.47;100005.31;4959825;28;114270;-70
2022/12/14 03:05:25;;;;;;;;;;;;;;;8.55;46.87;100004.53;4960954;28;119194;-66
2022/12/14 03:08:01;;;;;;;;;;;;;;;8.55;46.72;100005.31;4969274;28;127406;-70
2022/12/14 03:10:54;;;;;;;;;;;;;;;8.54;46.74;100003.72;4946902;28;98129;-66
2022/12/14 03:13:34;;;;;;;;;;;;;;;8.53;46.80;100002.13;4975759;28;99135;-70
2022/12/14 03:16:29;;;;;;;;;;;;;;;8.51;46.81;99998.06;4961118;28;111732;-66
2022/12/14 03:19:05;;;;;;;;;;;;;;;8.52;46.58;99997.00;4957728;28;98295;-66
2022/12/14 03:21:32;;;;;;;;;;;;;;;8.50;46.88;99994.56;4975691;28;123898;-66
2022/12/14 03:23:59;;;;;;;;;;;;;;;8.50;46.84;99991.09;4945467;28;122466;-70
2022/12/14 03:26:33;;;;;;;;;;;;;;;8.49;46.93;99987.59;4942079;28;97886;-70
2022/12/14 03:29:20;;;;;;;;;;;;;;;8.48;46.60;99985.16;4960493;28;113858;-70
2022/12/14 03:31:53;;;;;;;;;;;;;;;8.47;46.86;99987.03;4966632;28;98481;-70
2022/12/14 03:34:22;;;;;;;;;;;;;;;8.46;46.86;99985.44;4933976;28;119271;-66
2022/12/14 03:36:49;;;;;;;;;;;;;;;8.45;46.83;99986.50;4957024;28;107747;-66
2022/12/14 03:39:22;;;;;;;;;;;;;;;8.45;46.61;99985.69;4925857;28;128196;-66
2022/12/14 03:42:00;;;;;;;;;;;;;;;8.44;46.80;99976.81;4943827;28;129519;-66
2022/12/14 03:44:35;;;;;;;;;;;;;;;8.45;46.60;99981.16;4969691;28;98203;-66
2022/12/14 03:47:16;;;;;;;;;;;;;;;8.44;46.63;99986.75;4956020;28;98994;-66
2022/12/14 03:49:57;;;;;;;;;;;;;;;8.42;47.06;99968.22;4971152;27;98426;-69
2022/12/14 03:52:28;;;;;;;;;;;;;;;8.42;46.70;99968.22;4961337;28;127952;-65
2022/12/14 03:55:28;;;;;;;;;;;;;;;8.42;46.90;99962.88;4929098;28;100121;-66
2022/12/14 03:58:18;;;;;;;;;;;;;;;8.42;47.21;99967.44;4953056;28;99521;-70
2022/12/14 04:00:56;;;;;;;;;;;;;;;8.41;46.64;99971.16;4978029;28;98846;-70
2022/12/14 04:03:26;;;;;;;;;;;;;;;8.41;46.65;99969.31;4943560;28;106794;-69
2022/12/14 04:06:00;;;;;;;;;;;;;;;8.41;47.13;99965.78;4962223;28;97886;-69
2022/12/14 04:08:46;;;;;;;;;;;;;;;8.40;47.04;99956.94;4948639;28;97906;-70
2022/12/14 04:19:55;;;;;;;;;;;;;;;8.40;46.84;99948.06;4960171;28;98005;-69
2022/12/14 04:22:22;;;;;;;;;;;;;;;8.40;46.45;99937.31;4976870;28;98821;-65
2022/12/14 04:27:45;;;;;;;;;;;;;;;8.39;46.50;99930.34;4961998;28;98033;-69
2022/12/14 04:30:11;;;;;;;;;;;;;;;8.39;47.12;99928.47;4959903;28;115868;-69
2022/12/14 04:32:46;;;;;;;;;;;;;;;8.39;46.71;99928.47;4957601;28;121765;-66
2022/12/14 04:35:17;;;;;;;;;;;;;;;8.39;46.37;99928.47;4961170;28;99879;-66
2022/12/14 04:37:46;;;;;;;;;;;;;;;8.40;46.88;99922.00;4961796;28;117650;-69
2022/12/14 04:40:22;;;;;;;;;;;;;;;8.39;46.92;99911.56;4941338;28;115973;-66
2022/12/14 04:42:54;;;;;;;;;;;;;;;8.39;46.99;99912.34;4930578;28;99785;-69
2022/12/14 04:45:23;;;;;;;;;;;;;;;8.39;46.30;99909.66;4921337;28;125625;-66
2022/12/14 04:47:59;;;;;;;;;;;;;;;8.39;46.88;99906.19;4942229;28;97958;-70
2022/12/14 04:50:30;;;;;;;;;;;;;;;8.40;46.69;99905.09;4927167;28;97898;-70
2022/12/14 04:53:06;;;;;;;;;;;;;;;8.40;47.09;99900.53;4940652;28;119330;-70
2022/12/14 04:55:39;;;;;;;;;;;;;;;8.39;46.71;99890.88;4921747;28;122811;-69
2022/12/14 04:58:12;;;;;;;;;;;;;;;8.39;47.24;99888.19;4946908;28;98580;-70
2022/12/14 05:00:56;;;;;;;;;;;;;;;8.39;46.26;99882.81;4917077;28;103915;-66
2022/12/14 05:03:29;;;;;;;;;;;;;;;8.40;46.57;99889.00;4926871;28;130187;-66
2022/12/14 05:05:56;;;;;;;;;;;;;;;8.40;46.81;99886.31;4943758;28;126107;-70
2022/12/14 05:08:41;;;;;;;;;;;;;;;8.37;46.45;99876.91;4940079;28;98100;-69
2022/12/14 05:11:24;;;;;;;;;;;;;;;8.38;46.67;99869.66;4943012;28;98550;-69
2022/12/14 05:13:50;;;;;;;;;;;;;;;8.38;46.71;99861.59;4957288;28;98463;-70
2022/12/14 05:16:20;;;;;;;;;;;;;;;8.36;46.52;99864.50;4957957;28;100451;-66
2022/12/14 05:18:46;;;;;;;;;;;;;;;8.35;46.27;99868.28;4924897;28;111299;-70
2022/12/14 05:24:02;;;;;;;;;;;;;;;8.34;47.13;99854.03;4935389;28;98168;-65
2022/12/14 05:26:28;;;;;;;;;;;;;;;8.33;46.36;99849.75;4919364;28;101089;-66
2022/12/14 05:28:54;;;;;;;;;;;;;;;8.33;47.28;99854.28;4911662;28;124680;-66
2022/12/14 05:31:20;;;;;;;;;;;;;;;8.33;46.70;99848.91;4938595;28;97863;-69
2022/12/14 05:33:46;;;;;;;;;;;;;;;8.31;46.34;99838.47;4924633;28;115160;-66
2022/12/14 05:36:11;;;;;;;;;;;;;;;8.32;46.37;99832.00;4932315;28;127166;-70
2022/12/14 05:38:37;;;;;;;;;;;;;;;8.31;46.27;99837.66;4935267;28;126519;-66
2022/12/14 05:41:03;;;;;;;;;;;;;;;8.30;46.42;99842.22;4933943;28;118662;-66
2022/12/14 05:43:29;;;;;;;;;;;;;;;8.29;46.77;99845.16;4931209;28;127942;-70
2022/12/14 05:45:59;;;;;;;;;;;;;;;8.29;46.42;99842.47;4955089;28;128276;-70
2022/12/14 05:48:25;;;;;;;;;;;;;;;8.28;46.75;99841.66;4937362;28;98091;-70
2022/12/14 05:50:51;;;;;;;;;;;;;;;8.29;46.66;99839.78;4942902;28;119034;-70
2022/12/14 05:53:17;;;;;;;;;;;;;;;8.27;46.38;99826.63;4957063;28;99406;-66
2022/12/14 05:55:47;;;;;;;;;;;;;;;8.27;46.46;99826.63;4943367;28;98651;-66
2022/12/14 05:58:13;;;;;;;;;;;;;;;8.27;46.64;99826.63;4943381;28;120899;-70
2022/12/14 06:00:39;;;;;;;;;;;;;;;8.26;46.85;99825.03;4955081;28;117820;-66
2022/12/14 06:03:05;;;;;;;;;;;;;;;8.25;46.17;99823.44;4950510;28;128612;-70
2022/12/14 06:05:31;;;;;;;;;;;;;;;8.25;46.48;99814.53;4956938;28;125107;-70
2022/12/14 06:07:57;;;;;;;;;;;;;;;8.24;46.63;99812.94;4943872;28;116789;-69
2022/12/14 06:10:23;;;;;;;;;;;;;;;8.25;46.48;99823.44;4945371;28;117027;-70
2022/12/14 06:12:49;;;;;;;;;;;;;;;8.24;46.49;99816.44;4954590;28;110188;-66
2022/12/14 06:15:15;;;;;;;;;;;;;;;8.24;46.35;99811.06;4958098;28;98543;-70
2022/12/14 06:17:44;;;;;;;;;;;;;;;8.25;46.53;99809.16;4957770;28;123353;-66
2022/12/14 06:20:11;;;;;;;;;;;;;;;8.24;47.20;99808.38;4943251;28;98114;-70
2022/12/14 06:22:37;;;;;;;;;;;;;;;8.24;46.19;99812.94;4944179;28;105687;-66
2022/12/14 06:25:03;;;;;;;;;;;;;;;8.25;46.95;99803.81;4956321;28;125151;-69
2022/12/14 06:27:29;;;;;;;;;;;;;;;8.23;46.59;99809.44;4955459;28;126120;-66
2022/12/14 06:29:55;;;;;;;;;;;;;;;8.23;46.77;99805.97;4941505;28;118459;-70
2022/12/14 06:32:21;;;;;;;;;;;;;;;8.23;47.15;99798.72;4941104;28;128171;-66
2022/12/14 06:34:47;;;;;;;;;;;;;;;8.24;46.81;99804.88;4953543;28;107008;-66
2022/12/14 06:37:13;;;;;;;;;;;;;;;8.23;46.37;99801.41;4942418;28;127588;-66
2022/12/14 06:39:39;;;;;;;;;;;;;;;8.22;46.29;99797.09;4940787;28;102943;-66
2022/12/14 06:42:05;;;;;;;;;;;;;;;8.23;46.82;99801.41;4928111;28;128792;-69
2022/12/14 06:44:31;;;;;;;;;;;;;;;8.22;46.20;99794.41;4944142;28;120084;-66
2022/12/14 06:46:57;;;;;;;;;;;;;;;8.22;46.56;99797.09;4942685;28;127064;-70
2022/12/14 06:49:23;;;;;;;;;;;;;;;8.22;46.76;99793.63;4927410;28;117495;-69
2022/12/14 06:51:49;;;;;;;;;;;;;;;8.22;46.97;99790.94;4943880;28;126445;-66
2022/12/14 06:54:15;;;;;;;;;;;;;;;8.22;46.31;99789.06;4926418;28;99699;-70
2022/12/14 06:56:41;;;;;;;;;;;;;;;8.22;47.12;99790.94;4927829;28;119306;-70
2022/12/14 06:59:07;;;;;;;;;;;;;;;8.22;46.61;99793.63;4927713;28;108465;-66
2022/12/14 07:01:33;;;;;;;;;;;;;;;8.22;46.68;99780.19;4942253;28;115808;-66
2022/12/14 07:03:59;;;;;;;;;;;;;;;8.21;46.66;99782.06;4928697;28;126592;-66
2022/12/14 07:06:26;;;;;;;;;;;;;;;8.20;46.24;99774.28;4924291;28;123981;-66
2022/12/14 07:08:53;;;;;;;;;;;;;;;8.21;46.34;99790.09;4925272;28;98545;-66
2022/12/14 07:11:19;;;;;;;;;;;;;;;8.22;46.90;99782.88;4914726;28;98085;-69
2022/12/14 07:13:45;;;;;;;;;;;;;;;8.21;47.05;99775.88;4938066;28;127948;-66
2022/12/14 07:16:29;;;;;;;;;;;;;;;8.21;46.56;99778.56;4959420;28;114775;-69
2022/12/14 07:18:55;;;;;;;;;;;;;;;8.22;47.12;99766.78;4943768;28;98037;-69
2022/12/14 07:21:21;;;;;;;;;;;;;;;8.21;46.97;99763.25;4958959;28;98329;-66
2022/12/14 07:23:47;;;;;;;;;;;;;;;8.22;46.67;99764.88;4942547;28;98216;-69
2022/12/14 07:26:21;;;;;;;;;;;;;;;8.23;46.69;99765.69;4940601;28;100892;-66
2022/12/14 07:28:47;;;;;;;;;;;;;;;8.24;46.58;99769.97;4928687;28;99615;-66
2022/12/14 07:31:17;;;;;;;;;;;;;;;8.25;46.13;99755.47;4939621;28;98767;-70
2022/12/14 07:33:43;;;;;;;;;;;;;;;8.25;47.02;99756.31;4940764;28;103004;-65
2022/12/14 07:36:10;;;;;;;;;;;;;;;8.27;47.00;99756.03;4935104;28;127770;-70
2022/12/14 07:38:36;;;;;;;;;;;;;;;8.29;46.97;99751.16;4954720;28;106840;-66
2022/12/14 07:41:03;;;;;;;;;;;;;;;8.32;46.77;99742.59;4946586;28;101974;-65
2022/12/14 07:43:29;;;;;;;;;;;;;;;8.35;46.46;99747.41;4956436;28;127258;-66
2022/12/14 07:46:02;;;;;;;;;;;;;;;8.38;46.78;99749.59;4964485;28;97983;-70
2022/12/14 07:48:28;;;;;;;;;;;;;;;8.42;46.74;99741.81;4938821;28;99128;-69
2022/12/14 07:50:59;;;;;;;;;;;;;;;8.48;45.93;99740.72;4939340;28;100581;-70
2022/12/14 07:53:25;;;;;;;;;;;;;;;8.54;45.83;99740.44;4938504;28;126410;-69
2022/12/14 07:55:51;;;;;;;;;;;;;;;8.62;45.92;99733.72;4958445;28;128213;-65
2022/12/14 07:58:17;;;;;;;;;;;;;;;8.68;46.86;99729.94;4939941;28;117358;-70
2022/12/14 08:00:43;;;;;;;;;;;;;;;8.76;46.07;99726.72;4936461;28;117920;-69
2022/12/14 08:03:09;;;;;;;;;;;;;;;8.90;45.77;99729.63;4958178;28;128775;-70
2022/12/14 08:05:38;;;;;;;;;;;;;;;8.97;46.38;99730.13;4956727;28;127661;-66
2022/12/14 08:08:04;;;;;;;;;;;;;;;9.09;45.63;99719.88;4958807;28;98067;-69
2022/12/14 08:10:30;;;;;;;;;;;;;;;9.32;45.82;99717.63;4972735;28;126383;-70
2022/12/14 08:12:56;;;;;;;;;;;;;;;9.45;45.48;99717.00;4972804;27;97814;-70
2022/12/14 08:15:22;;;;;;;;;;;;;;;9.60;45.63;99713.44;4938708;28;127611;-70
2022/12/14 08:17:47;;;;;;;;;;;;;;;9.76;45.80;99714.13;4955611;28;117739;-70
2022/12/14 08:20:13;;;;;;;;;;;;;;;10.00;45.32;99709.66;4939525;28;127375;-66
2022/12/14 08:22:39;;;;;;;;;;;;;;;10.13;45.54;99708.19;4958677;28;103741;-70
2022/12/14 08:25:06;;;;;;;;;;;;;;;10.18;45.09;99710.84;4955118;28;126631;-70
2022/12/14 08:27:32;;;;;;;;;;;;;;;10.27;45.41;99713.75;4966525;28;113491;-66
2022/12/14 08:29:57;;;;;;;;;;;;;;;10.27;45.27;99701.09;4939416;28;127035;-70
2022/12/14 08:32:23;;;;;;;;;;;;;;;10.28;45.37;99704.59;4955647;28;127182;-69
2022/12/14 08:34:49;;;;;;;;;;;;;;;10.33;45.34;99691.06;4936354;28;126420;-66
2022/12/14 08:37:15;;;;;;;;;;;;;;;10.31;45.86;99696.75;4952933;28;117063;-66
2022/12/14 08:39:41;;;;;;;;;;;;;;;10.35;45.52;99694.28;4940428;28;126018;-70
2022/12/14 08:42:07;;;;;;;;;;;;;;;10.38;45.93;99687.53;4941365;28;129025;-70
2022/12/14 08:44:33;;;;;;;;;;;;;;;10.44;45.56;99691.78;4945407;28;127802;-70
2022/12/14 08:46:59;;;;;;;;;;;;;;;10.56;45.52;99687.59;4954425;28;116133;-70
2022/12/14 08:49:25;;;;;;;;;;;;;;;10.67;45.53;99677.53;4958133;28;98233;-70
2022/12/14 08:51:51;;;;;;;;;;;;;;;10.73;45.38;99681.78;4954907;28;112093;-66
2022/12/14 08:54:18;;;;;;;;;;;;;;;10.85;45.71;99678.69;4937603;28;126708;-70
2022/12/14 08:56:43;;;;;;;;;;;;;;;10.91;45.28;99676.72;4944066;28;98073;-70
2022/12/14 08:59:09;;;;;;;;;;;;;;;10.98;45.25;99675.28;4940717;28;128772;-70
2022/12/14 09:01:35;;;;;;;;;;;;;;;11.09;45.53;99680.53;4941854;28;101962;-66
2022/12/14 09:04:06;;;;;;;;;;;;;;;11.24;45.15;99683.03;4935719;28;127460;-66
2022/12/14 09:06:33;;;;;;;;;;;;;;;11.48;45.19;99674.88;4956056;28;99204;-70
2022/12/14 09:08:59;;;;;;;;;;;;;;;11.55;45.29;99661.81;4956590;28;102990;-70
2022/12/14 09:11:25;;;;;;;;;;;;;;;11.51;45.29;99653.53;4957497;28;128122;-71
2022/12/14 09:13:54;;;;;;;;;;;;;;;11.51;45.55;99642.72;4938880;28;127755;-71
2022/12/14 09:16:20;;;;;;;;;;;;;;;11.51;45.54;99653.53;4942519;28;97997;-67
2022/12/14 09:18:47;;;;;;;;;;;;;;;11.51;45.66;99639.19;4940549;28;99372;-70
2022/12/14 09:21:13;;;;;;;;;;;;;;;11.49;45.57;99641.41;4940681;28;99874;-66
2022/12/14 09:23:39;;;;;;;;;;;;;;;11.49;45.59;99630.59;4940402;28;108829;-66
2022/12/14 09:26:07;;;;;;;;;;;;;;;11.46;45.75;99621.19;4920011;28;98318;-70
2022/12/14 09:28:34;;;;;;;;;;;;;;;11.45;45.59;99618.78;4955231;28;127716;-70
2022/12/14 09:31:03;;;;;;;;;;;;;;;11.44;45.69;99614.50;4963146;28;111074;-66
2022/12/14 09:33:29;;;;;;;;;;;;;;;11.42;45.67;99603.97;4936876;28;128583;-69
2022/12/14 09:36:03;;;;;;;;;;;;;;;11.43;45.80;99604.78;4955231;28;98057;-66
2022/12/14 09:38:30;;;;;;;;;;;;;;;11.44;45.85;99609.09;4935021;28;98772;-66
2022/12/14 09:41:06;;;;;;;;;;;;;;;11.46;45.81;99599.59;4929092;28;98137;-66
2022/12/14 09:43:46;;;;;;;;;;;;;;;11.47;45.77;99598.50;4922655;28;126241;-69
2022/12/14 09:46:22;;;;;;;;;;;;;;;11.49;46.12;99592.81;4904184;28;114539;-66
2022/12/14 09:48:48;;;;;;;;;;;;;;;11.50;45.70;99583.63;4923238;28;125805;-66
2022/12/14 09:51:15;;;;;;;;;;;;;;;11.52;45.79;99576.03;4908623;28;128600;-70
2022/12/14 09:53:42;;;;;;;;;;;;;;;11.54;45.76;99568.44;4938859;28;127014;-70
2022/12/14 09:56:09;;;;;;;;;;;;;;;11.55;45.70;99568.16;4924005;28;98120;-67
2022/12/14 09:58:35;;;;;;;;;;;;;;;11.58;45.75;99566.75;4905889;28;112933;-70
2022/12/14 10:01:20;;;;;;;;;;;;;;;11.63;45.70;99558.59;4924767;28;127292;-70
2022/12/14 10:04:02;;;;;;;;;;;;;;;11.67;45.56;99551.50;4942295;28;98402;-71
2022/12/14 10:06:46;;;;;;;;;;;;;;;11.73;45.58;99550.31;4954927;28;99533;-70
2022/12/14 10:09:31;;;;;;;;;;;;;;;11.79;45.69;99551.81;4937283;28;127154;-70
2022/12/14 10:12:29;;;;;;;;;;;;;;;11.83;45.63;99541.28;4952804;28;98233;-70
2022/12/14 10:15:17;;;;;;;;;;;;;;;11.87;45.78;99544.16;4937773;28;125500;-70
2022/12/14 10:18:13;;;;;;;;;;;;;;;11.92;45.69;99541.38;4953415;28;98199;-70
2022/12/14 10:21:06;;;;;;;;;;;;;;;11.95;45.63;99546.97;4953727;28;98723;-67
2022/12/14 10:23:32;;;;;;;;;;;;;;;11.98;45.72;99542.88;4939093;28;98964;-70
2022/12/14 10:26:06;;;;;;;;;;;;;;;12.01;45.68;99537.66;4923225;28;128108;-70
2022/12/14 10:28:55;;;;;;;;;;;;;;;12.03;45.80;99532.78;4940204;28;99778;-70
2022/12/14 10:31:53;;;;;;;;;;;;;;;12.05;45.64;99529.78;4915269;28;98127;-70
2022/12/14 10:34:21;;;;;;;;;;;;;;;12.07;45.70;99524.09;4953698;28;99836;-70
2022/12/14 10:36:52;;;;;;;;;;;;;;;12.08;45.84;99522.97;4917155;28;98500;-66
2022/12/14 10:39:39;;;;;;;;;;;;;;;12.08;45.97;99525.69;4937168;28;98131;-67
2022/12/14 10:42:20;;;;;;;;;;;;;;;12.07;45.84;99522.19;4938675;28;99970;-70
2022/12/14 10:45:26;;;;;;;;;;;;;;;12.08;45.99;99523.78;4937547;28;98056;-70
2022/12/14 10:47:56;;;;;;;;;;;;;;;12.09;45.78;99516.47;4937319;28;99672;-66
2022/12/14 10:50:27;;;;;;;;;;;;;;;12.10;45.86;99515.38;4923540;28;112155;-66
2022/12/14 10:52:53;;;;;;;;;;;;;;;12.10;45.86;99515.38;4922501;28;98196;-70
2022/12/14 10:55:30;;;;;;;;;;;;;;;12.09;45.88;99511.06;4925373;28;128927;-70
2022/12/14 10:57:56;;;;;;;;;;;;;;;12.08;45.91;99517.56;4954381;28;122359;-66
2022/12/14 11:00:22;;;;;;;;;;;;;;;12.08;45.91;99510.28;4950938;28;117620;-70
2022/12/14 11:02:52;;;;;;;;;;;;;;;12.07;45.69;99505.97;4951023;28;126856;-66
2022/12/14 11:05:35;;;;;;;;;;;;;;;12.08;45.76;99504.06;4927144;28;99776;-67
2022/12/14 11:08:01;;;;;;;;;;;;;;;12.07;45.85;99500.56;4922181;28;98304;-66
2022/12/14 11:10:28;;;;;;;;;;;;;;;12.07;45.99;99495.19;4940529;28;109636;-66
2022/12/14 11:13:04;;;;;;;;;;;;;;;12.06;45.96;99482.75;4923643;28;98610;-66
2022/12/14 11:15:37;;;;;;;;;;;;;;;12.06;45.93;99490.06;4938109;28;98363;-70
2022/12/14 11:18:05;;;;;;;;;;;;;;;12.04;45.93;99483.06;4935857;28;98041;-66
2022/12/14 11:20:31;;;;;;;;;;;;;;;12.05;46.09;99486.56;4926537;28;98070;-70
2022/12/14 11:23:05;;;;;;;;;;;;;;;12.04;45.96;99488.47;4921946;28;100122;-70
2022/12/14 11:25:37;;;;;;;;;;;;;;;12.03;45.94;99480.66;4934481;28;99448;-66
2022/12/14 11:28:14;;;;;;;;;;;;;;;12.03;45.97;99478.75;4938356;28;98306;-66
2022/12/14 11:30:40;;;;;;;;;;;;;;;12.03;45.98;99475.28;4922844;28;117141;-66
2022/12/14 11:33:11;;;;;;;;;;;;;;;12.02;46.19;99466.38;4920102;28;130489;-66
2022/12/14 11:35:37;;;;;;;;;;;;;;;12.01;45.95;99464.75;4936126;28;98462;-66
2022/12/14 11:38:03;;;;;;;;;;;;;;;12.01;46.12;99455.84;4933687;28;126716;-70
2022/12/14 11:40:29;;;;;;;;;;;;;;;12.00;46.30;99454.25;4956234;28;117352;-70
2022/12/14 11:43:00;;;;;;;;;;;;;;;12.00;46.16;99462.34;4958694;28;112660;-66
2022/12/14 11:45:27;;;;;;;;;;;;;;;12.01;46.08;99462.03;4919394;28;99558;-70
2022/12/14 11:48:16;;;;;;;;;;;;;;;12.02;45.99;99460.97;4954429;28;99142;-70
2022/12/14 11:50:43;;;;;;;;;;;;;;;12.02;46.08;99462.84;4974428;28;98237;-70
2022/12/14 11:53:10;;;;;;;;;;;;;;;12.01;46.35;99456.66;4953437;28;98037;-66
2022/12/14 11:55:38;;;;;;;;;;;;;;;12.00;46.02;99467.75;4953577;28;116606;-66
2022/12/14 11:58:04;;;;;;;;;;;;;;;11.99;46.22;99461.56;4956350;28;125955;-70
2022/12/14 12:00:53;;;;;;;;;;;;;;;11.98;46.11;99459.94;4942819;28;111329;-70
2022/12/14 12:03:43;;;;;;;;;;;;;;;11.97;46.27;99454.84;4972612;28;111409;-70
2022/12/14 12:06:11;;;;;;;;;;;;;;;11.96;46.27;99453.25;4946629;27;126807;-70
2022/12/14 12:08:38;;;;;;;;;;;;;;;11.94;46.34;99450.84;4959603;28;98114;-66
2022/12/14 12:11:15;;;;;;;;;;;;;;;11.94;46.22;99452.75;4942317;28;98160;-66
2022/12/14 12:13:43;;;;;;;;;;;;;;;11.92;46.26;99450.34;4957627;28;117333;-70
2022/12/14 12:16:10;;;;;;;;;;;;;;;11.90;46.12;99449.03;4925705;28;98094;-70
2022/12/14 12:18:46;;;;;;;;;;;;;;;11.88;46.47;99452.06;4973049;28;98440;-70
2022/12/14 12:21:33;;;;;;;;;;;;;;;11.87;46.21;99446.94;4957627;28;98089;-70
2022/12/14 12:24:21;;;;;;;;;;;;;;;11.84;46.46;99447.56;4925034;28;125292;-70
2022/12/14 12:26:55;;;;;;;;;;;;;;;11.82;46.37;99442.41;4943657;28;99179;-66
2022/12/14 12:29:24;;;;;;;;;;;;;;;11.81;46.27;99438.13;4956634;28;98201;-70
2022/12/14 12:31:53;;;;;;;;;;;;;;;11.82;46.34;99439.72;4959603;28;97973;-70
2022/12/14 12:34:24;;;;;;;;;;;;;;;11.84;46.48;99434.06;4958060;28;98645;-69
2022/12/14 12:36:51;;;;;;;;;;;;;;;11.86;46.42;99426.44;4958367;28;99401;-70
2022/12/14 12:39:18;;;;;;;;;;;;;;;11.88;46.15;99421.56;4926852;28;125329;-70
2022/12/14 12:42:02;;;;;;;;;;;;;;;11.89;46.23;99420.44;4926072;28;100960;-66
2022/12/14 12:45:02;;;;;;;;;;;;;;;11.90;46.31;99413.94;4957697;28;98164;-70
2022/12/14 12:47:51;;;;;;;;;;;;;;;11.90;46.09;99411.25;4920147;28;100115;-66
2022/12/14 12:50:21;;;;;;;;;;;;;;;11.88;46.22;99410.75;4922917;28;119540;-70
2022/12/14 12:52:55;;;;;;;;;;;;;;;11.86;46.11;99405.63;4919225;28;98221;-70
2022/12/14 12:55:21;;;;;;;;;;;;;;;11.84;46.05;99399.75;4942297;28;98554;-70
2022/12/14 12:57:49;;;;;;;;;;;;;;;11.82;46.44;99401.91;4953873;28;98640;-69
2022/12/14 13:00:20;;;;;;;;;;;;;;;11.79;46.15;99405.22;4917864;28;99992;-70
2022/12/14 13:02:53;;;;;;;;;;;;;;;11.77;46.16;99410.13;4930400;28;98337;-66
2022/12/14 13:05:20;;;;;;;;;;;;;;;11.75;46.41;99410.44;4917576;28;99937;-66
2022/12/14 13:07:53;;;;;;;;;;;;;;;11.72;46.35;99404.84;4918314;28;126363;-66
2022/12/14 13:10:33;;;;;;;;;;;;;;;11.69;46.14;99400.03;4920880;28;124613;-69
2022/12/14 13:13:25;;;;;;;;;;;;;;;11.66;46.34;99396.00;4919737;28;98385;-70
2022/12/14 13:15:56;;;;;;;;;;;;;;;11.65;46.43;99383.63;4931027;28;98050;-66
2022/12/14 13:18:33;;;;;;;;;;;;;;;11.64;46.26;99389.34;4918097;28;121669;-70